Lugano Airport LSZA

Airport Data

Name: Lugano Airport

Ident: LSZA

Lat: 46.00429916

Long: 8.910579681

Elevation: 915 ft

IataCode: LUG

City: Lugano

Metar

2021/09/28 07:20
LSZA 280720Z VRB01KT CAVOK 14/13 Q1021 NOSIG

Taf

Add a Webcam Url. We will unlock it as soon is possible. Thank you:
Url: Title: